KBUR

Hollywood Burbank Airport

Airport
ICAO code
KBUR
IATA Code
BUR
Summary
ICAO Region
NAM
ICAO Territory
Location

Burbank, California

Serving
Los Angeles
Elevation
778 ft
Coordinates
34° 12' 2" N , 118° 21' 30" W
KCC
Airport RE
Engineered Materials Arresting System
Metar
KBUR 151853Z VRB05KT 10SM CLR 16/07 A3014 RMK AO2 SLP198 T01560067

Description

Formally known as Bob Hope Airport, Hollywood Burbank Airport is a public airport located 3 nm northwest of the central business district of Burbank, a city in Los Angeles County, California, United States.

Airport map

Aerial View

SKYbrary Partners:

Safety knowledge contributed by: